createdAt,value
2017-07-24T00:00:28.387Z,0
2017-07-24T00:01:09.283Z,0
2017-07-24T00:01:50.178Z,0
2017-07-24T00:02:31.070Z,0
2017-07-24T00:03:11.958Z,0
2017-07-24T00:03:52.857Z,0
2017-07-24T00:04:33.745Z,0
2017-07-24T00:05:14.639Z,0
2017-07-24T00:05:55.534Z,0
2017-07-24T00:06:36.417Z,0
2017-07-24T00:07:17.318Z,0
2017-07-24T00:07:58.219Z,0
2017-07-24T00:08:39.106Z,0
2017-07-24T00:09:20.010Z,0
2017-07-24T00:10:00.902Z,0
2017-07-24T00:10:41.797Z,0
2017-07-24T00:11:22.694Z,0
2017-07-24T00:12:03.591Z,0
2017-07-24T00:12:44.484Z,0
2017-07-24T00:13:25.380Z,0
2017-07-24T00:14:06.275Z,0
2017-07-24T00:14:47.179Z,0
2017-07-24T00:15:28.073Z,0
2017-07-24T00:16:08.968Z,0
2017-07-24T00:16:49.858Z,0
2017-07-24T00:17:30.749Z,0
2017-07-24T00:18:11.652Z,0
2017-07-24T00:18:52.543Z,0
2017-07-24T00:19:33.438Z,0
2017-07-24T00:20:14.334Z,0
2017-07-24T00:20:55.224Z,0
2017-07-24T00:21:36.120Z,0
2017-07-24T00:22:17.022Z,0
2017-07-24T00:22:57.910Z,0
2017-07-24T00:23:38.802Z,0
2017-07-24T00:24:19.731Z,0
2017-07-24T00:25:00.618Z,0
2017-07-24T00:25:41.521Z,0
2017-07-24T00:26:22.414Z,0
2017-07-24T00:27:03.317Z,0
2017-07-24T00:27:44.214Z,0
2017-07-24T00:28:25.110Z,0
2017-07-24T00:29:06.017Z,0
2017-07-24T00:29:46.940Z,0
2017-07-24T00:30:27.835Z,0
2017-07-24T00:31:08.728Z,0
2017-07-24T00:31:49.622Z,0
2017-07-24T00:32:30.516Z,0
2017-07-24T00:33:11.410Z,0
2017-07-24T00:33:52.299Z,0
2017-07-24T00:34:33.193Z,0
2017-07-24T00:35:14.084Z,0
2017-07-24T00:35:54.979Z,0
2017-07-24T00:36:35.871Z,0
2017-07-24T00:37:16.767Z,0
2017-07-24T00:37:57.665Z,0
2017-07-24T00:38:38.555Z,0
2017-07-24T00:39:19.444Z,0
2017-07-24T00:40:00.338Z,0
2017-07-24T00:40:41.236Z,0
2017-07-24T00:41:22.156Z,0
2017-07-24T00:42:03.030Z,0
2017-07-24T00:42:43.923Z,0
2017-07-24T00:43:24.815Z,0
2017-07-24T00:44:05.733Z,0
2017-07-24T00:44:46.616Z,0
2017-07-24T00:45:27.515Z,0
2017-07-24T00:46:08.408Z,0
2017-07-24T00:46:49.303Z,0
2017-07-24T00:47:30.195Z,0
2017-07-24T00:48:11.094Z,0
2017-07-24T00:48:51.982Z,0
2017-07-24T00:49:32.879Z,0
2017-07-24T00:50:13.768Z,0
2017-07-24T00:50:54.666Z,0
2017-07-24T00:51:35.554Z,0
2017-07-24T00:52:16.450Z,0
2017-07-24T00:52:57.347Z,0
2017-07-24T00:53:38.234Z,0
2017-07-24T00:54:19.149Z,0
2017-07-24T00:55:00.044Z,0
2017-07-24T00:55:40.923Z,0
2017-07-24T00:56:21.814Z,0
2017-07-24T00:57:02.713Z,0
2017-07-24T00:57:43.603Z,0
2017-07-24T00:58:24.505Z,0
2017-07-24T00:59:05.398Z,0
2017-07-24T00:59:46.279Z,0
2017-07-24T01:00:27.177Z,0
2017-07-24T01:01:08.069Z,0
2017-07-24T01:01:48.996Z,0
2017-07-24T01:02:29.861Z,0
2017-07-24T01:03:10.753Z,0
2017-07-24T01:03:51.640Z,0
2017-07-24T01:04:32.536Z,0
2017-07-24T01:05:13.426Z,0
2017-07-24T01:05:54.333Z,0
2017-07-24T01:06:35.243Z,0
2017-07-24T01:07:16.126Z,0
2017-07-24T01:07:57.016Z,0
2017-07-24T01:08:37.925Z,0
2017-07-24T01:09:18.816Z,0
2017-07-24T01:09:59.715Z,0
2017-07-24T01:10:40.610Z,0
2017-07-24T01:11:21.503Z,0
2017-07-24T01:12:02.397Z,0
2017-07-24T01:12:43.285Z,0
2017-07-24T01:13:24.184Z,0
2017-07-24T01:14:05.079Z,0
2017-07-24T01:14:45.966Z,0
2017-07-24T01:15:26.864Z,0
2017-07-24T01:16:07.792Z,0
2017-07-24T01:16:48.661Z,0
2017-07-24T01:17:29.553Z,0
2017-07-24T01:18:10.454Z,0
2017-07-24T01:18:51.349Z,0
2017-07-24T01:19:32.243Z,0
2017-07-24T01:20:13.135Z,0
2017-07-24T01:20:54.027Z,0
2017-07-24T01:21:34.919Z,0
2017-07-24T01:22:15.806Z,0
2017-07-24T01:22:56.712Z,0
2017-07-24T01:23:37.640Z,0
2017-07-24T01:24:18.541Z,0
2017-07-24T01:24:59.440Z,0
2017-07-24T01:25:40.346Z,0
2017-07-24T01:26:21.241Z,0
2017-07-24T01:27:02.122Z,0
2017-07-24T01:27:43.021Z,0
2017-07-24T01:28:23.916Z,0
2017-07-24T01:29:04.799Z,0
2017-07-24T01:29:45.697Z,0
2017-07-24T01:30:26.593Z,0
2017-07-24T01:31:07.478Z,0
2017-07-24T01:31:48.372Z,0
2017-07-24T01:32:29.273Z,0
2017-07-24T01:33:10.152Z,0
2017-07-24T01:33:51.048Z,0
2017-07-24T01:34:31.943Z,0
2017-07-24T01:35:12.825Z,0
2017-07-24T01:35:53.714Z,0
2017-07-24T01:36:34.615Z,0
2017-07-24T01:37:15.510Z,0
2017-07-24T01:37:56.400Z,0
2017-07-24T01:38:37.309Z,0
2017-07-24T01:39:18.217Z,0
2017-07-24T01:39:59.079Z,0
2017-07-24T01:40:39.971Z,0
2017-07-24T01:41:20.859Z,0
2017-07-24T01:42:01.752Z,0
2017-07-24T01:42:42.645Z,0
2017-07-24T01:43:23.536Z,0
2017-07-24T01:44:04.430Z,0
2017-07-24T01:44:45.325Z,0
2017-07-24T01:45:26.217Z,0
2017-07-24T01:46:07.128Z,0
2017-07-24T01:46:48.020Z,0
2017-07-24T01:47:28.910Z,0
2017-07-24T01:48:09.812Z,0
2017-07-24T01:48:50.699Z,0
2017-07-24T01:49:31.582Z,0
2017-07-24T01:50:12.492Z,0
2017-07-24T01:50:53.398Z,0
2017-07-24T01:51:34.314Z,0
2017-07-24T01:52:15.189Z,0
2017-07-24T01:52:56.081Z,0
2017-07-24T01:53:36.984Z,0
2017-07-24T01:54:17.860Z,0
2017-07-24T01:54:58.757Z,0
2017-07-24T01:55:39.653Z,0
2017-07-24T01:56:20.540Z,0
2017-07-24T01:57:01.440Z,0
2017-07-24T01:57:42.341Z,0
2017-07-24T01:58:23.237Z,0
2017-07-24T01:59:04.130Z,0
2017-07-24T01:59:45.018Z,0
2017-07-24T02:00:25.897Z,0
2017-07-24T02:01:06.800Z,0
2017-07-24T02:01:47.684Z,0
2017-07-24T02:02:28.581Z,0
2017-07-24T02:03:09.470Z,0
2017-07-24T02:03:50.359Z,0
2017-07-24T02:04:31.250Z,0
2017-07-24T02:05:12.148Z,0
2017-07-24T02:05:53.039Z,0
2017-07-24T02:06:33.932Z,0
2017-07-24T02:07:14.822Z,0
2017-07-24T02:07:55.717Z,0
2017-07-24T02:08:36.609Z,0
2017-07-24T02:09:17.503Z,0
2017-07-24T02:09:58.393Z,0
2017-07-24T02:10:39.288Z,0
2017-07-24T02:11:20.175Z,0
2017-07-24T02:12:01.069Z,0
2017-07-24T02:12:41.955Z,0
2017-07-24T02:13:22.852Z,0
2017-07-24T02:14:03.745Z,0
2017-07-24T02:14:44.633Z,0
2017-07-24T02:15:25.530Z,0
2017-07-24T02:16:06.413Z,0
2017-07-24T02:16:47.314Z,0
2017-07-24T02:17:28.202Z,0
2017-07-24T02:18:09.088Z,0
2017-07-24T02:18:49.980Z,0
2017-07-24T02:19:30.876Z,0
2017-07-24T02:20:11.773Z,0
2017-07-24T02:20:52.660Z,0
2017-07-24T02:21:33.560Z,0
2017-07-24T02:22:14.450Z,0
2017-07-24T02:22:55.339Z,0
2017-07-24T02:23:36.235Z,0
2017-07-24T02:24:17.121Z,0
2017-07-24T02:24:58.009Z,0
2017-07-24T02:25:38.913Z,0
2017-07-24T02:26:19.802Z,0
2017-07-24T02:28:13.443Z,0
2017-07-24T02:28:54.328Z,0
2017-07-24T02:29:35.217Z,0
2017-07-24T02:30:16.116Z,0
2017-07-24T02:30:57.005Z,0
2017-07-24T02:31:37.880Z,0
2017-07-24T02:32:18.764Z,0
2017-07-24T02:32:59.669Z,0
2017-07-24T02:33:40.557Z,0
2017-07-24T02:34:21.484Z,0
2017-07-24T02:35:02.366Z,4
2017-07-24T02:35:43.281Z,4
2017-07-24T02:36:24.172Z,4
2017-07-24T02:37:05.055Z,4
2017-07-24T02:37:45.945Z,4
2017-07-24T02:38:26.833Z,4
2017-07-24T02:39:07.715Z,4
2017-07-24T02:39:48.619Z,4
2017-07-24T02:40:29.499Z,0
2017-07-24T02:41:10.408Z,0
2017-07-24T02:41:51.302Z,4
2017-07-24T02:42:32.187Z,4
2017-07-24T02:43:13.093Z,4
2017-07-24T02:43:53.987Z,4
2017-07-24T02:44:34.877Z,4
2017-07-24T02:45:15.776Z,4
2017-07-24T02:45:56.661Z,8
2017-07-24T02:46:37.547Z,8
2017-07-24T02:47:18.442Z,4
2017-07-24T02:47:59.351Z,8
2017-07-24T02:48:40.226Z,8
2017-07-24T02:49:21.120Z,8
2017-07-24T02:50:02.027Z,12
2017-07-24T02:50:42.897Z,8
2017-07-24T02:51:23.785Z,12
2017-07-24T02:52:04.684Z,12
2017-07-24T02:52:45.575Z,12
2017-07-24T02:53:26.457Z,16
2017-07-24T02:54:07.337Z,16
2017-07-24T02:54:48.237Z,20
2017-07-24T02:55:29.118Z,20
2017-07-24T02:56:10.011Z,20
2017-07-24T02:56:50.904Z,24
2017-07-24T02:57:31.784Z,24
2017-07-24T02:58:12.678Z,28
2017-07-24T02:58:53.590Z,28
2017-07-24T02:59:34.458Z,32
2017-07-24T03:00:15.350Z,36
2017-07-24T03:00:56.253Z,36
2017-07-24T03:01:37.143Z,40
2017-07-24T03:02:18.037Z,44
2017-07-24T03:02:58.928Z,44
2017-07-24T03:03:39.813Z,48
2017-07-24T03:04:20.703Z,52
2017-07-24T03:05:01.607Z,56
2017-07-24T03:05:42.486Z,60
2017-07-24T03:06:23.379Z,64
2017-07-24T03:07:04.276Z,72
2017-07-24T03:07:45.177Z,76
2017-07-24T03:08:26.067Z,80
2017-07-24T03:09:06.965Z,88
2017-07-24T03:09:47.848Z,92
2017-07-24T03:10:28.741Z,100
2017-07-24T03:11:09.633Z,100
2017-07-24T03:11:50.524Z,108
2017-07-24T03:12:31.416Z,112
2017-07-24T03:13:12.309Z,116
2017-07-24T03:13:53.192Z,120
2017-07-24T03:14:34.081Z,128
2017-07-24T03:15:14.972Z,132
2017-07-24T03:15:55.867Z,136
2017-07-24T03:16:36.769Z,136
2017-07-24T03:17:17.669Z,144
2017-07-24T03:17:58.551Z,148
2017-07-24T03:18:39.446Z,160
2017-07-24T03:19:20.339Z,164
2017-07-24T03:20:01.222Z,172
2017-07-24T03:20:42.112Z,184
2017-07-24T03:21:23.007Z,192
2017-07-24T03:22:03.923Z,204
2017-07-24T03:22:44.795Z,220
2017-07-24T03:23:25.687Z,232
2017-07-24T03:24:06.581Z,252
2017-07-24T03:24:47.471Z,268
2017-07-24T03:25:28.364Z,280
2017-07-24T03:26:09.246Z,292
2017-07-24T03:26:50.138Z,308
2017-07-24T03:27:31.031Z,324
2017-07-24T03:28:11.925Z,340
2017-07-24T03:28:52.828Z,352
2017-07-24T03:29:33.725Z,368
2017-07-24T03:30:14.642Z,384
2017-07-24T03:30:55.542Z,400
2017-07-24T03:31:36.430Z,408
2017-07-24T03:32:17.321Z,416
2017-07-24T03:32:58.211Z,428
2017-07-24T03:33:39.095Z,440
2017-07-24T03:34:19.981Z,464
2017-07-24T03:35:00.875Z,488
2017-07-24T03:35:41.764Z,516
2017-07-24T03:36:22.671Z,548
2017-07-24T03:37:03.568Z,584
2017-07-24T03:37:44.448Z,612
2017-07-24T03:38:25.348Z,648
2017-07-24T03:39:06.235Z,688
2017-07-24T03:39:47.144Z,744
2017-07-24T03:40:28.028Z,788
2017-07-24T03:41:08.911Z,824
2017-07-24T03:41:49.796Z,848
2017-07-24T03:42:30.695Z,872
2017-07-24T03:43:11.593Z,908
2017-07-24T03:43:52.477Z,944
2017-07-24T03:44:33.375Z,968
2017-07-24T03:45:14.265Z,996
2017-07-24T03:45:55.152Z,1012
2017-07-24T03:46:36.057Z,1012
2017-07-24T03:47:16.939Z,1036
2017-07-24T03:47:57.837Z,1076
2017-07-24T03:48:38.728Z,1112
2017-07-24T03:49:19.613Z,1152
2017-07-24T03:50:00.504Z,1192
2017-07-24T03:50:41.407Z,1208
2017-07-24T03:51:22.291Z,1216
2017-07-24T03:52:03.190Z,1216
2017-07-24T03:52:44.080Z,1208
2017-07-24T03:53:24.975Z,1204
2017-07-24T03:54:05.861Z,1184
2017-07-24T03:54:46.762Z,1168
2017-07-24T03:55:27.657Z,1180
2017-07-24T03:56:08.557Z,1212
2017-07-24T03:56:49.442Z,1244
2017-07-24T03:57:30.329Z,1300
2017-07-24T03:58:11.221Z,1376
2017-07-24T03:58:52.111Z,1448
2017-07-24T03:59:33.004Z,1540
2017-07-24T04:00:13.895Z,1636
2017-07-24T04:00:54.784Z,1692
2017-07-24T04:01:35.679Z,1732
2017-07-24T04:02:16.562Z,1752
2017-07-24T04:02:57.473Z,1792
2017-07-24T04:03:38.370Z,1844
2017-07-24T04:04:19.255Z,1884
2017-07-24T04:05:00.175Z,1928
2017-07-24T04:05:41.069Z,1948
2017-07-24T04:06:21.963Z,1992
2017-07-24T04:07:02.856Z,2032
2017-07-24T04:07:43.742Z,2040
2017-07-24T04:08:24.643Z,2024
2017-07-24T04:09:05.533Z,2004
2017-07-24T04:09:46.418Z,2004
2017-07-24T04:10:27.311Z,2008
2017-07-24T04:11:08.201Z,2028
2017-07-24T04:11:49.095Z,2048
2017-07-24T04:12:29.992Z,2092
2017-07-24T04:13:10.899Z,2124
2017-07-24T04:13:51.788Z,2172
2017-07-24T04:14:32.683Z,2216
2017-07-24T04:15:13.602Z,2260
2017-07-24T04:15:54.497Z,2296
2017-07-24T04:16:35.389Z,2320
2017-07-24T04:17:16.282Z,2360
2017-07-24T04:17:57.183Z,2400
2017-07-24T04:18:38.083Z,2448
2017-07-24T04:19:18.965Z,2496
2017-07-24T04:19:59.879Z,2524
2017-07-24T04:20:40.803Z,2576
2017-07-24T04:21:21.700Z,2604
2017-07-24T04:22:02.591Z,2636
2017-07-24T04:22:43.494Z,2664
2017-07-24T04:23:24.377Z,2676
2017-07-24T04:24:05.274Z,2704
2017-07-24T04:24:46.171Z,2708
2017-07-24T04:25:27.064Z,2744
2017-07-24T04:26:08.003Z,2784
2017-07-24T04:26:48.873Z,2832
2017-07-24T04:27:29.767Z,2900
2017-07-24T04:28:10.661Z,3024
2017-07-24T04:28:51.556Z,3172
2017-07-24T04:29:32.447Z,3316
2017-07-24T04:30:13.345Z,3432
2017-07-24T04:30:54.233Z,3512
2017-07-24T04:31:35.144Z,3576
2017-07-24T04:32:16.017Z,3692
2017-07-24T04:32:56.912Z,3812
2017-07-24T04:33:37.804Z,3900
2017-07-24T04:34:18.695Z,4000
2017-07-24T04:34:59.585Z,4148
2017-07-24T04:35:40.482Z,4244
2017-07-24T04:36:21.399Z,4288
2017-07-24T04:37:02.268Z,4296
2017-07-24T04:37:43.169Z,4328
2017-07-24T04:38:24.060Z,4384
2017-07-24T04:39:04.956Z,4420
2017-07-24T04:39:45.855Z,4432
2017-07-24T04:40:26.743Z,4480
2017-07-24T04:41:07.634Z,4496
2017-07-24T04:41:48.537Z,4468
2017-07-24T04:42:29.430Z,4456
2017-07-24T04:43:10.323Z,4456
2017-07-24T04:43:51.219Z,4380
2017-07-24T04:44:32.108Z,4332
2017-07-24T04:45:13.002Z,4312
2017-07-24T04:45:53.891Z,4284
2017-07-24T04:46:34.794Z,4272
2017-07-24T04:47:15.714Z,4332
2017-07-24T04:47:56.603Z,4352
2017-07-24T04:48:37.494Z,4392
2017-07-24T04:49:18.399Z,4388
2017-07-24T04:49:59.293Z,4456
2017-07-24T04:50:40.180Z,4536
2017-07-24T04:51:21.067Z,4544
2017-07-24T04:52:01.978Z,4568
2017-07-24T04:52:42.875Z,4608
2017-07-24T04:53:23.838Z,4600
2017-07-24T04:54:04.728Z,4580
2017-07-24T04:54:45.637Z,4580
2017-07-24T04:55:26.517Z,4556
2017-07-24T04:56:07.406Z,4564
2017-07-24T04:56:48.331Z,4544
2017-07-24T04:57:29.236Z,4588
2017-07-24T04:58:10.128Z,4628
2017-07-24T04:58:51.017Z,4672
2017-07-24T04:59:31.902Z,4724
2017-07-24T05:00:12.801Z,4716
2017-07-24T05:00:53.685Z,4656
2017-07-24T05:01:34.591Z,4672
2017-07-24T05:02:15.482Z,4692
2017-07-24T05:02:56.375Z,4720
2017-07-24T05:03:37.272Z,4724
2017-07-24T05:04:18.166Z,4672
2017-07-24T05:04:59.069Z,4632
2017-07-24T05:05:39.977Z,4628
2017-07-24T05:06:20.857Z,4616
2017-07-24T05:07:01.768Z,4644
2017-07-24T05:07:42.657Z,4632
2017-07-24T05:08:23.562Z,4564
2017-07-24T05:09:04.477Z,4572
2017-07-24T05:09:45.376Z,4584
2017-07-24T05:10:26.276Z,4608
2017-07-24T05:11:07.163Z,4632
2017-07-24T05:11:48.083Z,4684
2017-07-24T05:12:28.971Z,4716
2017-07-24T05:13:09.859Z,4696
2017-07-24T05:13:50.757Z,4712
2017-07-24T05:14:31.653Z,4648
2017-07-24T05:15:12.552Z,4624
2017-07-24T05:15:53.456Z,4660
2017-07-24T05:16:34.353Z,4708
2017-07-24T05:17:15.279Z,4740
2017-07-24T05:17:56.197Z,4768
2017-07-24T05:18:37.067Z,4820
2017-07-24T05:19:17.954Z,4900
2017-07-24T05:19:59.685Z,4984
2017-07-24T05:20:40.588Z,5200
2017-07-24T05:21:21.494Z,5484
2017-07-24T05:22:02.380Z,5548
2017-07-24T05:22:43.270Z,5768
2017-07-24T05:23:24.182Z,5896
2017-07-24T05:24:05.082Z,5952
2017-07-24T05:24:45.976Z,6144
2017-07-24T05:25:26.885Z,6248
2017-07-24T05:26:07.779Z,6176
2017-07-24T05:26:48.682Z,6320
2017-07-24T05:27:29.576Z,6220
2017-07-24T05:28:10.474Z,6296
2017-07-24T05:28:51.371Z,6424
2017-07-24T05:29:32.274Z,6428
2017-07-24T05:30:13.167Z,6272
2017-07-24T05:30:54.066Z,6192
2017-07-24T05:31:34.957Z,6188
2017-07-24T05:32:15.852Z,6260
2017-07-24T05:32:56.745Z,6336
2017-07-24T05:33:37.640Z,6308
2017-07-24T05:34:18.545Z,6332
2017-07-24T05:34:59.448Z,6288
2017-07-24T05:35:40.422Z,6268
2017-07-24T05:36:21.242Z,6260
2017-07-24T05:37:02.123Z,6284
2017-07-24T05:37:43.010Z,6340
2017-07-24T05:38:23.916Z,6408
2017-07-24T05:39:04.830Z,6476
2017-07-24T05:39:45.734Z,6536
2017-07-24T05:40:26.647Z,6632
2017-07-24T05:41:07.550Z,6660
2017-07-24T05:41:48.440Z,6712
2017-07-24T05:42:29.335Z,6676
2017-07-24T05:43:10.232Z,6596
2017-07-24T05:43:51.120Z,6520
2017-07-24T05:44:32.016Z,6488
2017-07-24T05:45:12.910Z,6484
2017-07-24T05:45:53.800Z,6524
2017-07-24T05:46:34.705Z,6600
2017-07-24T05:47:15.596Z,6556
2017-07-24T05:47:56.490Z,6560
2017-07-24T05:48:37.400Z,6584
2017-07-24T05:49:18.297Z,6532
2017-07-24T05:49:59.192Z,6464
2017-07-24T05:50:40.078Z,6412
2017-07-24T05:51:20.968Z,6360
2017-07-24T05:52:01.871Z,6360
2017-07-24T05:52:42.767Z,6412
2017-07-24T05:53:23.655Z,6480
2017-07-24T05:54:04.552Z,6556
2017-07-24T05:54:45.444Z,6624
2017-07-24T05:55:26.324Z,6684
2017-07-24T05:56:07.224Z,6724
2017-07-24T05:56:48.115Z,6804
2017-07-24T05:57:29.014Z,6888
2017-07-24T05:58:09.928Z,6848
2017-07-24T05:58:50.820Z,6788
2017-07-24T05:59:31.724Z,6752
2017-07-24T06:00:12.627Z,6748
2017-07-24T06:00:53.523Z,6712
2017-07-24T06:01:34.424Z,6840
2017-07-24T06:02:15.321Z,6840
2017-07-24T06:02:56.225Z,6788
2017-07-24T06:03:37.115Z,6820
2017-07-24T06:04:18.007Z,6764
2017-07-24T06:04:58.901Z,6784
2017-07-24T06:05:39.798Z,7012
2017-07-24T06:06:20.702Z,7096
2017-07-24T06:07:01.596Z,7152
2017-07-24T06:07:42.502Z,7340
2017-07-24T06:08:23.394Z,7524
2017-07-24T06:09:04.292Z,7708
2017-07-24T06:09:45.196Z,8008
2017-07-24T06:10:26.077Z,8324
2017-07-24T06:11:06.973Z,8596
2017-07-24T06:11:47.865Z,9128
2017-07-24T06:12:28.761Z,9488
2017-07-24T06:13:09.652Z,9460
2017-07-24T06:13:50.556Z,9412
2017-07-24T06:14:31.445Z,9172
2017-07-24T06:15:12.337Z,9288
2017-07-24T06:15:53.237Z,10396
2017-07-24T06:16:34.127Z,10288
2017-07-24T06:17:15.019Z,10788
2017-07-24T06:17:55.911Z,10312
2017-07-24T06:18:36.805Z,9732
2017-07-24T06:19:17.704Z,9416
2017-07-24T06:19:58.611Z,9660
2017-07-24T06:20:39.498Z,9632
2017-07-24T06:21:20.409Z,9468
2017-07-24T06:22:01.297Z,9604
2017-07-24T06:22:42.188Z,9664
2017-07-24T06:23:23.086Z,9900
2017-07-24T06:24:03.982Z,10088
2017-07-24T06:24:44.900Z,10024
2017-07-24T06:25:25.782Z,9952
2017-07-24T06:26:06.665Z,10296
2017-07-24T06:26:47.570Z,10224
2017-07-24T06:27:28.457Z,10012
2017-07-24T06:28:09.339Z,10012
2017-07-24T06:28:50.240Z,10124
2017-07-24T06:29:31.133Z,10388
2017-07-24T06:30:12.026Z,10600
2017-07-24T06:30:52.929Z,10528
2017-07-24T06:31:33.819Z,10376
2017-07-24T06:32:14.695Z,10220
2017-07-24T06:32:55.592Z,10424
2017-07-24T06:33:36.484Z,10668
2017-07-24T06:34:17.370Z,10780
2017-07-24T06:34:58.279Z,10772
2017-07-24T06:36:58.107Z,10924
2017-07-24T06:37:39.025Z,10840
2017-07-24T06:38:19.914Z,10712
2017-07-24T06:39:00.808Z,10396
2017-07-24T06:39:41.713Z,10292
2017-07-24T06:40:22.603Z,10508
2017-07-24T06:41:03.498Z,10776
2017-07-24T06:41:44.400Z,10668
2017-07-24T06:42:25.293Z,10424
2017-07-24T06:43:06.185Z,10460
2017-07-24T06:43:47.080Z,10460
2017-07-24T06:44:27.979Z,10616
2017-07-24T06:45:08.884Z,11116
2017-07-24T06:45:49.778Z,11180
2017-07-24T06:46:30.676Z,11032
2017-07-24T06:47:11.585Z,11352
2017-07-24T06:47:52.481Z,11684
2017-07-24T06:48:33.399Z,12060
2017-07-24T06:49:14.270Z,11600
2017-07-24T06:49:55.165Z,11204
2017-07-24T06:50:36.069Z,11584
2017-07-24T06:51:16.965Z,11420
2017-07-24T06:51:57.864Z,11780
2017-07-24T06:52:38.762Z,11680
2017-07-24T06:53:19.659Z,11560
2017-07-24T06:54:00.554Z,11612
2017-07-24T06:54:41.448Z,11404
2017-07-24T06:56:35.107Z,11092
2017-07-24T06:57:16.002Z,10836
2017-07-24T06:57:56.915Z,10936
2017-07-24T06:58:37.809Z,11116
2017-07-24T06:59:18.719Z,11788
2017-07-24T06:59:59.606Z,12488
2017-07-24T07:00:40.506Z,12420
2017-07-24T07:01:21.412Z,12816
2017-07-24T07:02:02.304Z,13072
2017-07-24T07:02:43.252Z,12176
2017-07-24T07:03:24.188Z,13524
2017-07-24T07:04:05.058Z,13524
2017-07-24T07:04:45.964Z,13128
2017-07-24T07:05:26.858Z,13552
2017-07-24T07:06:07.758Z,13796
2017-07-24T07:06:48.697Z,14232
2017-07-24T07:07:29.592Z,14840
2017-07-24T07:08:10.501Z,15096
2017-07-24T07:08:51.425Z,15092
2017-07-24T07:09:32.323Z,15584
2017-07-24T07:10:13.219Z,15904
2017-07-24T07:10:54.116Z,15872
2017-07-24T07:11:35.008Z,15060
2017-07-24T07:12:15.908Z,16416
2017-07-24T07:12:56.808Z,16096
2017-07-24T07:13:37.694Z,15040
2017-07-24T07:14:18.600Z,14708
2017-07-24T07:14:59.493Z,14536
2017-07-24T07:15:40.391Z,14856
2017-07-24T07:16:21.293Z,15648
2017-07-24T07:17:02.191Z,14872
2017-07-24T07:17:43.093Z,17120
2017-07-24T07:18:23.989Z,24416
2017-07-24T07:19:04.933Z,33536
2017-07-24T07:19:45.826Z,39488
2017-07-24T07:21:39.473Z,40256
2017-07-24T07:22:20.374Z,46048
2017-07-24T07:23:01.280Z,44608
2017-07-24T07:23:42.174Z,44256
2017-07-24T07:24:23.085Z,39104
2017-07-24T07:25:03.972Z,36608
2017-07-24T07:25:44.868Z,35136
2017-07-24T07:26:25.771Z,36096
2017-07-24T07:27:06.672Z,37440
2017-07-24T07:27:47.581Z,36960
2017-07-24T07:28:28.473Z,38080
2017-07-24T07:29:09.372Z,38720
2017-07-24T07:29:50.271Z,43040
2017-07-24T07:30:31.171Z,41984
2017-07-24T07:31:12.076Z,41216
2017-07-24T07:31:52.979Z,41472
2017-07-24T07:32:33.890Z,39296
2017-07-24T07:33:14.789Z,41216
2017-07-24T07:33:55.688Z,39488
2017-07-24T07:34:36.576Z,37248
2017-07-24T07:35:17.462Z,34720
2017-07-24T07:35:58.382Z,37760
2017-07-24T07:36:39.274Z,43424
2017-07-24T07:37:20.169Z,48288
2017-07-24T07:38:01.081Z,50880
2017-07-24T07:38:41.971Z,52736
2017-07-24T07:39:22.873Z,55904
2017-07-24T07:40:03.763Z,57952
2017-07-24T07:40:44.650Z,57408
2017-07-24T07:41:25.561Z,58240
2017-07-24T07:42:06.454Z,58368
2017-07-24T07:42:47.357Z,57120
2017-07-24T07:43:28.258Z,55488
2017-07-24T07:44:09.171Z,58976
2017-07-24T07:44:50.074Z,60736
2017-07-24T07:45:30.978Z,62368
2017-07-24T07:46:11.888Z,63424
2017-07-24T07:46:52.806Z,62848
2017-07-24T07:47:33.708Z,61248
2017-07-24T07:48:14.597Z,60576
2017-07-24T07:48:55.512Z,59712
2017-07-24T07:49:36.400Z,57888
2017-07-24T07:50:17.320Z,55840
2017-07-24T07:50:58.220Z,52288
2017-07-24T07:51:39.136Z,50688
2017-07-24T07:52:20.030Z,50720
2017-07-24T07:53:00.950Z,53696
2017-07-24T07:53:41.833Z,46528
2017-07-24T07:54:22.711Z,35520
2017-07-24T07:55:03.620Z,24064
2017-07-24T07:55:44.520Z,16864
2017-07-24T07:56:25.429Z,16256
2017-07-24T07:57:06.334Z,16000
2017-07-24T07:57:47.247Z,16352
2017-07-24T07:58:28.149Z,16128
2017-07-24T07:59:09.087Z,15936
2017-07-24T07:59:49.976Z,15808
2017-07-24T08:00:30.885Z,16160
2017-07-24T08:01:11.789Z,16224
2017-07-24T08:01:52.695Z,16384
2017-07-24T08:02:33.600Z,16384
2017-07-24T08:03:14.503Z,16032
2017-07-24T08:03:55.415Z,15488
2017-07-24T08:04:36.320Z,15024
2017-07-24T08:05:17.229Z,14604
2017-07-24T08:05:58.127Z,15744
2017-07-24T08:06:39.043Z,15488
2017-07-24T08:07:19.927Z,14928
2017-07-24T08:08:00.826Z,14900
2017-07-24T08:08:41.741Z,14880
2017-07-24T08:09:22.647Z,14992
2017-07-24T08:10:03.562Z,15032
2017-07-24T08:10:44.469Z,15392
2017-07-24T08:11:25.376Z,16000
2017-07-24T08:12:06.290Z,15744
2017-07-24T08:12:47.196Z,16704
2017-07-24T08:13:28.094Z,23552
2017-07-24T08:14:09.013Z,38112
2017-07-24T08:14:49.951Z,59872
2017-07-24T08:15:30.831Z,71584
2017-07-24T08:16:11.749Z,65760
2017-07-24T08:16:52.649Z,64288
2017-07-24T08:17:33.570Z,66208
2017-07-24T08:18:14.472Z,72704
2017-07-24T08:18:55.390Z,73664
2017-07-24T08:19:36.288Z,72992
2017-07-24T08:20:17.258Z,73792
2017-07-24T08:20:58.143Z,73056
2017-07-24T08:21:39.040Z,72576
2017-07-24T08:22:19.935Z,72128
2017-07-24T08:23:00.841Z,70016
2017-07-24T08:23:41.741Z,70144
2017-07-24T08:24:22.656Z,69696
2017-07-24T08:25:03.560Z,71264
2017-07-24T08:25:44.490Z,76064
2017-07-24T08:26:25.409Z,77376
2017-07-24T08:27:06.317Z,77856
2017-07-24T08:27:47.229Z,78560
2017-07-24T08:28:28.137Z,71552
2017-07-24T08:29:09.046Z,68160
2017-07-24T08:29:49.959Z,70080
2017-07-24T08:30:30.862Z,77920
2017-07-24T08:31:11.774Z,81024
2017-07-24T08:31:52.695Z,76640
2017-07-24T08:32:33.609Z,68768
2017-07-24T08:33:14.534Z,66368
2017-07-24T08:33:55.445Z,66304
2017-07-24T08:34:36.344Z,67296
2017-07-24T08:35:17.251Z,68448
2017-07-24T08:35:58.164Z,71136
2017-07-24T08:36:39.076Z,69920
2017-07-24T08:37:19.983Z,77472
2017-07-24T08:38:00.889Z,78752
2017-07-24T08:38:41.802Z,80064
2017-07-24T08:39:22.708Z,81952
2017-07-24T08:40:03.621Z,81472
2017-07-24T08:40:44.524Z,81824
2017-07-24T08:41:25.444Z,69568
2017-07-24T08:42:06.347Z,75136
2017-07-24T08:42:47.272Z,74624
2017-07-24T08:43:28.169Z,74272
2017-07-24T08:44:09.075Z,81888
2017-07-24T08:44:49.986Z,84800
2017-07-24T08:45:30.910Z,84864
2017-07-24T08:46:11.839Z,81504
2017-07-24T08:46:52.765Z,262140
2017-07-24T08:47:33.683Z,262140
2017-07-24T08:48:14.585Z,262140
2017-07-24T08:48:55.511Z,262140
2017-07-24T08:49:36.419Z,262140
2017-07-24T08:50:17.341Z,262140
2017-07-24T08:50:58.249Z,262140
2017-07-24T08:51:39.158Z,262140
2017-07-24T08:52:20.078Z,262140
2017-07-24T08:53:00.990Z,262140
2017-07-24T08:53:41.914Z,262140
2017-07-24T08:54:22.826Z,262140
2017-07-24T08:55:03.741Z,262140
2017-07-24T08:55:44.651Z,262140
2017-07-24T08:56:25.569Z,262140
2017-07-24T08:57:06.477Z,262140
2017-07-24T08:57:47.388Z,262140
2017-07-24T08:58:28.297Z,262140
2017-07-24T08:59:09.214Z,262140
2017-07-24T08:59:50.136Z,262140
2017-07-24T09:00:31.046Z,262140
2017-07-24T09:01:11.986Z,262140
2017-07-24T09:01:52.867Z,262140
2017-07-24T09:02:33.793Z,262140
2017-07-24T09:03:14.694Z,262140
2017-07-24T09:03:55.614Z,262140
2017-07-24T09:04:36.522Z,262140
2017-07-24T09:05:17.437Z,262140
2017-07-24T09:05:58.359Z,262140
2017-07-24T09:06:39.262Z,262140
2017-07-24T09:07:20.175Z,262140
2017-07-24T09:08:01.089Z,262140
2017-07-24T09:08:42.008Z,262140
2017-07-24T09:09:23.079Z,262140
2017-07-24T09:10:03.987Z,262140
2017-07-24T09:10:44.907Z,262140
2017-07-24T09:11:25.808Z,262140
2017-07-24T09:12:06.753Z,262140
2017-07-24T09:12:47.641Z,262140
2017-07-24T09:13:28.553Z,262140
2017-07-24T09:14:09.458Z,262140
2017-07-24T09:14:50.385Z,262140
2017-07-24T09:15:31.294Z,262140
2017-07-24T09:16:12.215Z,262140
2017-07-24T09:16:53.128Z,262140
2017-07-24T09:17:34.013Z,262140
2017-07-24T09:18:14.937Z,262140
2017-07-24T09:18:55.865Z,262140
2017-07-24T09:19:36.763Z,262140
2017-07-24T09:20:17.671Z,262140
2017-07-24T09:20:58.602Z,262140
2017-07-24T09:21:39.495Z,262140